sensor_id;sensor_type;location;lat;lon;timestamp;pressure;altitude;pressure_sealevel;temperature;humidity
22657;BME280;11495;55.610;12.100;2022-09-20T00:01:11;101401.66;;;9.09;0.00
22657;BME280;11495;55.610;12.100;2022-09-20T00:03:37;101393.37;;;9.04;0.00
22657;BME280;11495;55.610;12.100;2022-09-20T00:06:04;101391.72;;;9.03;0.00
22657;BME280;11495;55.610;12.100;2022-09-20T00:08:29;101384.22;;;8.98;0.00
22657;BME280;11495;55.610;12.100;2022-09-20T00:11:02;101373.75;;;8.95;0.00
22657;BME280;11495;55.610;12.100;2022-09-20T00:13:28;101358.87;;;8.91;0.00
22657;BME280;11495;55.610;12.100;2022-09-20T00:15:53;101339.94;;;8.89;0.00
22657;BME280;11495;55.610;12.100;2022-09-20T00:18:19;101334.44;;;8.89;0.00
22657;BME280;11495;55.610;12.100;2022-09-20T00:20:44;101310.03;;;8.88;0.00
22657;BME280;11495;55.610;12.100;2022-09-20T00:23:10;101304.78;;;8.86;0.00
22657;BME280;11495;55.610;12.100;2022-09-20T00:25:35;101292.72;;;8.87;0.00
22657;BME280;11495;55.610;12.100;2022-09-20T00:28:00;101294.66;;;8.87;0.00
22657;BME280;11495;55.610;12.100;2022-09-20T00:30:26;101282.34;;;8.89;0.00
22657;BME280;11495;55.610;12.100;2022-09-20T00:32:51;101273.84;;;8.91;0.00
22657;BME280;11495;55.610;12.100;2022-09-20T00:35:16;101251.91;;;8.91;0.00
22657;BME280;11495;55.610;12.100;2022-09-20T00:37:42;101238.19;;;8.91;0.00
22657;BME280;11495;55.610;12.100;2022-09-20T00:40:09;101226.66;;;8.89;0.00
22657;BME280;11495;55.610;12.100;2022-09-20T00:42:35;101218.69;;;8.87;0.00
22657;BME280;11495;55.610;12.100;2022-09-20T00:45:04;101205.72;;;8.83;0.00
22657;BME280;11495;55.610;12.100;2022-09-20T00:47:35;101220.00;;;8.85;0.00
22657;BME280;11495;55.610;12.100;2022-09-20T00:50:04;101210.72;;;8.86;0.00
22657;BME280;11495;55.610;12.100;2022-09-20T00:52:31;101215.69;;;8.89;0.00
22657;BME280;11495;55.610;12.100;2022-09-20T00:54:56;101210.94;;;8.84;0.00
22657;BME280;11495;55.610;12.100;2022-09-20T00:57:22;101210.91;;;8.79;0.00
22657;BME280;11495;55.610;12.100;2022-09-20T00:59:48;101214.94;;;8.77;0.00
22657;BME280;11495;55.610;12.100;2022-09-20T01:02:16;101212.72;;;8.73;0.00
22657;BME280;11495;55.610;12.100;2022-09-20T01:04:42;101216.56;;;8.72;0.00
22657;BME280;11495;55.610;12.100;2022-09-20T01:07:10;101211.81;;;8.68;0.00
22657;BME280;11495;55.610;12.100;2022-09-20T01:09:37;101210.75;;;8.69;0.00
22657;BME280;11495;55.610;12.100;2022-09-20T01:12:04;101199.19;;;8.67;0.00
22657;BME280;11495;55.610;12.100;2022-09-20T01:14:30;101197.28;;;8.67;0.00
22657;BME280;11495;55.610;12.100;2022-09-20T01:16:57;101192.41;;;8.69;0.00
22657;BME280;11495;55.610;12.100;2022-09-20T01:19:27;101178.69;;;8.69;0.00
22657;BME280;11495;55.610;12.100;2022-09-20T01:21:57;101167.47;;;8.71;0.00
22657;BME280;11495;55.610;12.100;2022-09-20T01:24:31;101157.88;;;8.73;0.00
22657;BME280;11495;55.610;12.100;2022-09-20T01:32:12;101139.03;;;8.77;0.00
22657;BME280;11495;55.610;12.100;2022-09-20T01:34:44;101125.53;;;8.76;0.00
22657;BME280;11495;55.610;12.100;2022-09-20T01:42:08;101119.81;;;8.77;0.00
22657;BME280;11495;55.610;12.100;2022-09-20T01:50:04;101114.91;;;8.79;0.00
22657;BME280;11495;55.610;12.100;2022-09-20T01:58:08;101093.72;;;8.75;0.00
22657;BME280;11495;55.610;12.100;2022-09-20T02:08:39;101099.94;;;8.65;0.00
22657;BME280;11495;55.610;12.100;2022-09-20T02:11:16;101093.09;;;8.67;0.00
22657;BME280;11495;55.610;12.100;2022-09-20T02:21:34;101094.25;;;8.71;0.00
22657;BME280;11495;55.610;12.100;2022-09-20T02:34:42;101085.97;;;8.93;0.00
22657;BME280;11495;55.610;12.100;2022-09-20T02:42:33;101089.78;;;9.14;0.00
22657;BME280;11495;55.610;12.100;2022-09-20T02:55:16;101089.25;;;9.44;0.00
22657;BME280;11495;55.610;12.100;2022-09-20T02:57:49;101088.16;;;9.45;0.00
22657;BME280;11495;55.610;12.100;2022-09-20T03:00:22;101095.28;;;9.46;0.00
22657;BME280;11495;55.610;12.100;2022-09-20T03:02:56;101089.53;;;9.48;0.00
22657;BME280;11495;55.610;12.100;2022-09-20T03:05:26;101089.53;;;9.48;0.00
22657;BME280;11495;55.610;12.100;2022-09-20T03:18:15;101076.75;;;9.32;0.00
22657;BME280;11495;55.610;12.100;2022-09-20T03:28:31;101104.94;;;9.22;0.00
22657;BME280;11495;55.610;12.100;2022-09-20T03:36:36;101129.06;;;9.47;0.00
22657;BME280;11495;55.610;12.100;2022-09-20T03:46:21;101131.00;;;9.78;0.00
22657;BME280;11495;55.610;12.100;2022-09-20T03:51:46;101137.56;;;9.77;0.00
22657;BME280;11495;55.610;12.100;2022-09-20T03:59:52;101161.94;;;9.69;0.00
22657;BME280;11495;55.610;12.100;2022-09-20T04:02:27;101191.53;;;9.62;0.00
22657;BME280;11495;55.610;12.100;2022-09-20T04:04:56;101227.41;;;9.28;0.00
22657;BME280;11495;55.610;12.100;2022-09-20T04:12:39;101232.03;;;8.62;0.00
22657;BME280;11495;55.610;12.100;2022-09-20T04:15:15;101238.84;;;8.59;0.00
22657;BME280;11495;55.610;12.100;2022-09-20T04:20:22;101242.19;;;8.61;0.00
22657;BME280;11495;55.610;12.100;2022-09-20T04:22:53;101243.59;;;8.64;0.00
22657;BME280;11495;55.610;12.100;2022-09-20T04:25:21;101245.62;;;8.73;0.00
22657;BME280;11495;55.610;12.100;2022-09-20T04:27:49;101239.44;;;8.83;0.00
22657;BME280;11495;55.610;12.100;2022-09-20T04:30:20;101242.28;;;8.88;0.00
22657;BME280;11495;55.610;12.100;2022-09-20T04:38:21;101233.47;;;9.08;0.00
22657;BME280;11495;55.610;12.100;2022-09-20T05:02:13;101209.41;;;9.15;0.00
22657;BME280;11495;55.610;12.100;2022-09-20T05:07:36;101204.81;;;9.21;0.00
22657;BME280;11495;55.610;12.100;2022-09-20T05:23:19;101223.59;;;9.29;0.00
22657;BME280;11495;55.610;12.100;2022-09-20T05:28:24;101222.56;;;9.35;0.00
22657;BME280;11495;55.610;12.100;2022-09-20T05:31:39;101219.28;;;9.38;0.00
22657;BME280;11495;55.610;12.100;2022-09-20T05:36:12;101211.41;;;9.47;0.00
22657;BME280;11495;55.610;12.100;2022-09-20T05:43:33;101214.31;;;9.62;0.00
22657;BME280;11495;55.610;12.100;2022-09-20T05:48:31;101220.75;;;9.73;0.00
22657;BME280;11495;55.610;12.100;2022-09-20T05:51:04;101223.84;;;9.81;0.00
22657;BME280;11495;55.610;12.100;2022-09-20T05:56:39;101221.25;;;9.97;0.00
22657;BME280;11495;55.610;12.100;2022-09-20T06:01:21;101221.09;;;10.13;0.00
22657;BME280;11495;55.610;12.100;2022-09-20T06:03:49;101223.97;;;10.24;0.00
22657;BME280;11495;55.610;12.100;2022-09-20T06:21:51;101221.66;;;10.48;0.00
22657;BME280;11495;55.610;12.100;2022-09-20T06:27:23;101222.84;;;10.62;0.00
22657;BME280;11495;55.610;12.100;2022-09-20T06:29:57;101234.47;;;10.69;0.00
22657;BME280;11495;55.610;12.100;2022-09-20T06:32:24;101242.97;;;10.67;0.00
22657;BME280;11495;55.610;12.100;2022-09-20T06:34:50;101238.25;;;10.63;0.00
22657;BME280;11495;55.610;12.100;2022-09-20T06:37:27;101243.81;;;10.68;0.00
22657;BME280;11495;55.610;12.100;2022-09-20T06:43:13;101242.50;;;10.81;0.00
22657;BME280;11495;55.610;12.100;2022-09-20T06:45:41;101246.75;;;11.09;0.00
22657;BME280;11495;55.610;12.100;2022-09-20T06:48:07;101256.94;;;11.08;0.00
22657;BME280;11495;55.610;12.100;2022-09-20T06:50:39;101259.44;;;11.10;0.00
22657;BME280;11495;55.610;12.100;2022-09-20T06:53:07;101268.09;;;11.34;0.00
22657;BME280;11495;55.610;12.100;2022-09-20T06:55:35;101275.06;;;11.72;0.00
22657;BME280;11495;55.610;12.100;2022-09-20T06:58:02;101279.50;;;11.78;0.00
22657;BME280;11495;55.610;12.100;2022-09-20T07:00:27;101282.31;;;11.98;0.00
22657;BME280;11495;55.610;12.100;2022-09-20T07:02:52;101293.91;;;11.95;0.00
22657;BME280;11495;55.610;12.100;2022-09-20T07:05:20;101304.41;;;12.14;0.00
22657;BME280;11495;55.610;12.100;2022-09-20T07:07:46;101323.69;;;12.24;0.00
22657;BME280;11495;55.610;12.100;2022-09-20T07:10:11;101342.75;;;12.25;0.00
22657;BME280;11495;55.610;12.100;2022-09-20T07:12:38;101352.66;;;12.31;0.00
22657;BME280;11495;55.610;12.100;2022-09-20T07:15:04;101365.63;;;12.41;0.00
22657;BME280;11495;55.610;12.100;2022-09-20T07:17:30;101381.09;;;12.47;0.00
22657;BME280;11495;55.610;12.100;2022-09-20T07:19:55;101401.00;;;12.70;0.00
22657;BME280;11495;55.610;12.100;2022-09-20T07:22:21;101417.84;;;12.78;0.00
22657;BME280;11495;55.610;12.100;2022-09-20T07:24:46;101447.09;;;12.84;0.00
22657;BME280;11495;55.610;12.100;2022-09-20T07:27:12;101463.41;;;13.11;0.00
22657;BME280;11495;55.610;12.100;2022-09-20T07:29:37;101479.69;;;13.18;0.00
22657;BME280;11495;55.610;12.100;2022-09-20T07:32:05;101505.41;;;13.34;0.00
22657;BME280;11495;55.610;12.100;2022-09-20T07:34:30;101532.19;;;13.38;0.00
22657;BME280;11495;55.610;12.100;2022-09-20T07:36:56;101546.84;;;13.59;0.00
22657;BME280;11495;55.610;12.100;2022-09-20T07:39:23;101569.22;;;13.63;0.00
22657;BME280;11495;55.610;12.100;2022-09-20T07:41:49;101594.38;;;13.61;0.00
22657;BME280;11495;55.610;12.100;2022-09-20T07:44:15;101626.16;;;13.43;0.00
22657;BME280;11495;55.610;12.100;2022-09-20T07:46:50;101656.81;;;13.37;0.00
22657;BME280;11495;55.610;12.100;2022-09-20T07:49:15;101688.06;;;13.47;0.00
22657;BME280;11495;55.610;12.100;2022-09-20T07:51:41;101717.66;;;13.72;0.00
22657;BME280;11495;55.610;12.100;2022-09-20T07:54:06;101777.09;;;13.60;0.00
22657;BME280;11495;55.610;12.100;2022-09-20T07:56:32;101838.19;;;13.58;0.00
22657;BME280;11495;55.610;12.100;2022-09-20T07:58:57;101895.94;;;13.60;0.00
22657;BME280;11495;55.610;12.100;2022-09-20T08:01:22;101940.00;;;13.76;0.00
22657;BME280;11495;55.610;12.100;2022-09-20T08:03:47;101984.78;;;13.78;0.00
22657;BME280;11495;55.610;12.100;2022-09-20T08:06:13;102011.75;;;14.03;0.00
22657;BME280;11495;55.610;12.100;2022-09-20T08:08:40;102037.78;;;14.13;0.00
22657;BME280;11495;55.610;12.100;2022-09-20T08:11:09;102058.69;;;14.41;0.00
22657;BME280;11495;55.610;12.100;2022-09-20T08:13:35;102089.66;;;14.32;0.00
22657;BME280;11495;55.610;12.100;2022-09-20T08:16:01;102107.78;;;14.60;0.00
22657;BME280;11495;55.610;12.100;2022-09-20T08:18:27;102134.16;;;14.78;0.00
22657;BME280;11495;55.610;12.100;2022-09-20T08:20:53;102164.81;;;14.61;0.00
22657;BME280;11495;55.610;12.100;2022-09-20T08:23:19;102170.75;;;14.85;0.00
22657;BME280;11495;55.610;12.100;2022-09-20T08:25:44;102183.53;;;14.92;0.00
22657;BME280;11495;55.610;12.100;2022-09-20T08:28:11;102214.06;;;14.54;0.00
22657;BME280;11495;55.610;12.100;2022-09-20T08:30:36;102206.72;;;14.33;0.00
22657;BME280;11495;55.610;12.100;2022-09-20T08:33:02;102193.72;;;14.33;0.00
22657;BME280;11495;55.610;12.100;2022-09-20T08:35:27;102186.97;;;14.19;0.00
22657;BME280;11495;55.610;12.100;2022-09-20T08:37:54;102185.47;;;14.44;0.00
22657;BME280;11495;55.610;12.100;2022-09-20T08:40:19;102182.50;;;14.55;0.00
22657;BME280;11495;55.610;12.100;2022-09-20T08:42:48;102179.81;;;14.66;0.00
22657;BME280;11495;55.610;12.100;2022-09-20T08:45:14;102215.41;;;14.47;0.00
22657;BME280;11495;55.610;12.100;2022-09-20T08:47:49;102241.84;;;14.70;0.00
22657;BME280;11495;55.610;12.100;2022-09-20T08:50:15;102263.13;;;14.59;0.00
22657;BME280;11495;55.610;12.100;2022-09-20T08:52:43;102269.84;;;14.36;0.00
22657;BME280;11495;55.610;12.100;2022-09-20T08:55:13;102270.47;;;14.11;0.00
22657;BME280;11495;55.610;12.100;2022-09-20T08:57:40;102254.91;;;14.05;0.00
22657;BME280;11495;55.610;12.100;2022-09-20T09:00:09;102227.84;;;14.07;0.00
22657;BME280;11495;55.610;12.100;2022-09-20T09:02:41;102219.78;;;14.05;0.00
22657;BME280;11495;55.610;12.100;2022-09-20T09:07:52;102228.28;;;13.94;0.00
22657;BME280;11495;55.610;12.100;2022-09-20T09:10:17;102240.00;;;13.74;0.00
22657;BME280;11495;55.610;12.100;2022-09-20T09:12:42;102250.16;;;13.68;0.00
22657;BME280;11495;55.610;12.100;2022-09-20T09:15:56;102261.06;;;13.53;0.00
22657;BME280;11495;55.610;12.100;2022-09-20T09:17:56;102245.50;;;13.47;0.00
22657;BME280;11495;55.610;12.100;2022-09-20T09:20:22;102220.78;;;13.62;0.00
22657;BME280;11495;55.610;12.100;2022-09-20T09:22:57;102224.13;;;13.96;0.00
22657;BME280;11495;55.610;12.100;2022-09-20T09:25:24;102219.00;;;14.47;0.00
22657;BME280;11495;55.610;12.100;2022-09-20T09:28:01;102263.22;;;14.79;0.00
22657;BME280;11495;55.610;12.100;2022-09-20T09:30:31;102321.44;;;14.84;0.00
22657;BME280;11495;55.610;12.100;2022-09-20T09:35:41;102360.25;;;15.32;0.00
22657;BME280;11495;55.610;12.100;2022-09-20T09:38:10;102431.22;;;14.91;0.00
22657;BME280;11495;55.610;12.100;2022-09-20T09:40:47;102431.28;;;15.06;0.00
22657;BME280;11495;55.610;12.100;2022-09-20T09:43:18;102445.53;;;15.20;0.00
22657;BME280;11495;55.610;12.100;2022-09-20T09:45:44;102468.06;;;15.28;0.00
22657;BME280;11495;55.610;12.100;2022-09-20T09:50:43;102486.22;;;15.51;0.00
22657;BME280;11495;55.610;12.100;2022-09-20T09:53:10;102508.19;;;15.58;0.00
22657;BME280;11495;55.610;12.100;2022-09-20T10:01:00;102639.03;;;15.50;0.00
22657;BME280;11495;55.610;12.100;2022-09-20T10:06:02;102692.00;;;15.80;0.00
22657;BME280;11495;55.610;12.100;2022-09-20T10:08:35;102695.03;;;15.73;0.00
22657;BME280;11495;55.610;12.100;2022-09-20T10:13:33;102717.19;;;15.46;0.00
22657;BME280;11495;55.610;12.100;2022-09-20T10:18:35;102680.38;;;15.24;0.00
22657;BME280;11495;55.610;12.100;2022-09-20T10:36:57;102735.81;;;14.80;0.00
22657;BME280;11495;55.610;12.100;2022-09-20T10:39:33;102734.50;;;14.83;0.00
22657;BME280;11495;55.610;12.100;2022-09-20T10:42:06;102727.19;;;14.77;0.00
22657;BME280;11495;55.610;12.100;2022-09-20T10:47:26;102724.28;;;15.10;0.00
22657;BME280;11495;55.610;12.100;2022-09-20T10:50:11;102725.19;;;15.16;0.00
22657;BME280;11495;55.610;12.100;2022-09-20T10:52:44;102728.63;;;15.50;0.00
22657;BME280;11495;55.610;12.100;2022-09-20T11:01:16;102761.03;;;15.23;0.00
22657;BME280;11495;55.610;12.100;2022-09-20T11:06:39;102716.12;;;14.99;0.00
22657;BME280;11495;55.610;12.100;2022-09-20T11:09:09;102701.28;;;15.37;0.00
22657;BME280;11495;55.610;12.100;2022-09-20T11:15:13;102692.28;;;15.79;0.00
22657;BME280;11495;55.610;12.100;2022-09-20T11:17:29;102722.38;;;15.38;0.00
22657;BME280;11495;55.610;12.100;2022-09-20T11:25:02;102704.69;;;14.51;0.00
22657;BME280;11495;55.610;12.100;2022-09-20T11:27:31;102701.00;;;14.29;0.00
22657;BME280;11495;55.610;12.100;2022-09-20T11:30:02;102682.84;;;14.16;0.00
22657;BME280;11495;55.610;12.100;2022-09-20T11:32:35;102649.09;;;14.36;0.00
22657;BME280;11495;55.610;12.100;2022-09-20T11:35:05;102624.78;;;15.09;0.00
22657;BME280;11495;55.610;12.100;2022-09-20T11:37:49;102679.00;;;15.54;0.00
22657;BME280;11495;55.610;12.100;2022-09-20T11:40:28;102700.59;;;16.11;0.00
22657;BME280;11495;55.610;12.100;2022-09-20T11:42:55;102750.69;;;16.26;0.00
22657;BME280;11495;55.610;12.100;2022-09-20T11:45:22;102755.63;;;16.56;0.00
22657;BME280;11495;55.610;12.100;2022-09-20T11:47:50;102788.03;;;16.08;0.00
22657;BME280;11495;55.610;12.100;2022-09-20T11:57:59;102718.72;;;15.32;0.00
22657;BME280;11495;55.610;12.100;2022-09-20T12:00:30;102699.00;;;15.56;0.00
22657;BME280;11495;55.610;12.100;2022-09-20T12:02:59;102710.88;;;15.78;0.00
22657;BME280;11495;55.610;12.100;2022-09-20T12:07:58;102728.97;;;15.59;0.00
22657;BME280;11495;55.610;12.100;2022-09-20T12:10:26;102750.44;;;15.20;0.00
22657;BME280;11495;55.610;12.100;2022-09-20T12:12:56;102735.56;;;15.04;0.00
22657;BME280;11495;55.610;12.100;2022-09-20T12:28:34;102691.31;;;15.36;0.00
22657;BME280;11495;55.610;12.100;2022-09-20T12:36:21;102727.69;;;16.31;0.00
22657;BME280;11495;55.610;12.100;2022-09-20T12:38:48;102731.66;;;15.76;0.00
22657;BME280;11495;55.610;12.100;2022-09-20T12:41:16;102720.16;;;15.62;0.00
22657;BME280;11495;55.610;12.100;2022-09-20T12:44:02;102713.84;;;15.44;0.00
22657;BME280;11495;55.610;12.100;2022-09-20T12:46:32;102697.31;;;15.82;0.00
22657;BME280;11495;55.610;12.100;2022-09-20T12:52:03;102720.91;;;16.58;0.00
22657;BME280;11495;55.610;12.100;2022-09-20T12:54:50;102689.81;;;16.19;0.00
22657;BME280;11495;55.610;12.100;2022-09-20T12:57:17;102654.94;;;15.91;0.00
22657;BME280;11495;55.610;12.100;2022-09-20T12:59:58;102626.94;;;15.61;0.00
22657;BME280;11495;55.610;12.100;2022-09-20T13:07:56;102578.53;;;14.60;0.00
22657;BME280;11495;55.610;12.100;2022-09-20T13:10:27;102561.84;;;14.55;0.00
22657;BME280;11495;55.610;12.100;2022-09-20T13:15:49;102546.78;;;15.27;0.00
22657;BME280;11495;55.610;12.100;2022-09-20T13:18:17;102563.84;;;15.46;0.00
22657;BME280;11495;55.610;12.100;2022-09-20T13:20:43;102576.34;;;15.49;0.00
22657;BME280;11495;55.610;12.100;2022-09-20T13:23:15;102568.34;;;15.89;0.00
22657;BME280;11495;55.610;12.100;2022-09-20T13:25:41;102575.53;;;15.85;0.00
22657;BME280;11495;55.610;12.100;2022-09-20T13:28:08;102580.97;;;15.70;0.00
22657;BME280;11495;55.610;12.100;2022-09-20T13:30:39;102573.81;;;15.79;0.00
22657;BME280;11495;55.610;12.100;2022-09-20T13:33:19;102565.56;;;15.89;0.00
22657;BME280;11495;55.610;12.100;2022-09-20T13:35:45;102564.56;;;16.11;0.00
22657;BME280;11495;55.610;12.100;2022-09-20T13:38:12;102595.94;;;15.69;0.00
22657;BME280;11495;55.610;12.100;2022-09-20T13:40:47;102584.12;;;15.84;0.00
22657;BME280;11495;55.610;12.100;2022-09-20T13:45:40;102548.56;;;15.76;0.00
22657;BME280;11495;55.610;12.100;2022-09-20T13:48:06;102525.66;;;15.58;0.00
22657;BME280;11495;55.610;12.100;2022-09-20T13:50:33;102521.03;;;15.69;0.00
22657;BME280;11495;55.610;12.100;2022-09-20T13:52:59;102528.47;;;16.06;0.00
22657;BME280;11495;55.610;12.100;2022-09-20T13:55:32;102547.94;;;16.21;0.00
22657;BME280;11495;55.610;12.100;2022-09-20T13:58:01;102548.41;;;16.02;0.00
22657;BME280;11495;55.610;12.100;2022-09-20T14:00:28;102533.38;;;15.93;0.00
22657;BME280;11495;55.610;12.100;2022-09-20T14:02:55;102515.50;;;15.69;0.00
22657;BME280;11495;55.610;12.100;2022-09-20T14:05:22;102510.00;;;15.79;0.00
22657;BME280;11495;55.610;12.100;2022-09-20T14:07:51;102499.25;;;15.93;0.00
22657;BME280;11495;55.610;12.100;2022-09-20T14:10:34;102504.22;;;15.86;0.00
22657;BME280;11495;55.610;12.100;2022-09-20T14:13:02;102512.25;;;15.87;0.00
22657;BME280;11495;55.610;12.100;2022-09-20T14:15:31;102498.91;;;15.79;0.00
22657;BME280;11495;55.610;12.100;2022-09-20T14:17:59;102483.34;;;15.73;0.00
22657;BME280;11495;55.610;12.100;2022-09-20T14:20:25;102477.00;;;15.83;0.00
22657;BME280;11495;55.610;12.100;2022-09-20T14:22:51;102480.59;;;15.78;0.00
22657;BME280;11495;55.610;12.100;2022-09-20T14:27:42;102462.50;;;15.70;0.00
22657;BME280;11495;55.610;12.100;2022-09-20T14:32:52;102444.00;;;15.86;0.00
22657;BME280;11495;55.610;12.100;2022-09-20T14:35:19;102459.44;;;15.67;0.00
22657;BME280;11495;55.610;12.100;2022-09-20T14:37:47;102461.91;;;15.63;0.00
22657;BME280;11495;55.610;12.100;2022-09-20T14:40:15;102452.44;;;15.59;0.00
22657;BME280;11495;55.610;12.100;2022-09-20T14:42:42;102457.13;;;15.54;0.00
22657;BME280;11495;55.610;12.100;2022-09-20T14:47:54;102456.38;;;15.63;0.00
22657;BME280;11495;55.610;12.100;2022-09-20T14:52:59;102456.38;;;15.63;0.00
22657;BME280;11495;55.610;12.100;2022-09-20T14:55:24;102457.09;;;15.49;0.00
22657;BME280;11495;55.610;12.100;2022-09-20T14:57:54;102466.44;;;15.37;0.00
22657;BME280;11495;55.610;12.100;2022-09-20T15:00:20;102459.88;;;15.49;0.00
22657;BME280;11495;55.610;12.100;2022-09-20T15:02:46;102457.66;;;15.51;0.00
22657;BME280;11495;55.610;12.100;2022-09-20T15:07:42;102476.53;;;15.49;0.00
22657;BME280;11495;55.610;12.100;2022-09-20T15:10:12;102469.59;;;15.51;0.00
22657;BME280;11495;55.610;12.100;2022-09-20T15:12:37;102465.88;;;15.35;0.00
22657;BME280;11495;55.610;12.100;2022-09-20T15:15:03;102468.09;;;15.33;0.00
22657;BME280;11495;55.610;12.100;2022-09-20T15:17:28;102463.66;;;15.32;0.00
22657;BME280;11495;55.610;12.100;2022-09-20T15:19:53;102461.22;;;15.46;0.00
22657;BME280;11495;55.610;12.100;2022-09-20T15:22:19;102464.78;;;15.36;0.00
22657;BME280;11495;55.610;12.100;2022-09-20T15:24:44;102463.66;;;15.37;0.00
22657;BME280;11495;55.610;12.100;2022-09-20T15:27:10;102471.97;;;15.32;0.00
22657;BME280;11495;55.610;12.100;2022-09-20T15:29:36;102472.97;;;15.21;0.00
22657;BME280;11495;55.610;12.100;2022-09-20T15:32:01;102469.19;;;15.32;0.00
22657;BME280;11495;55.610;12.100;2022-09-20T15:34:28;102467.28;;;15.38;0.00
22657;BME280;11495;55.610;12.100;2022-09-20T15:36:53;102471.03;;;15.16;0.00
22657;BME280;11495;55.610;12.100;2022-09-20T15:39:19;102477.91;;;15.09;0.00
22657;BME280;11495;55.610;12.100;2022-09-20T15:41:46;102508.78;;;14.91;0.00
22657;BME280;11495;55.610;12.100;2022-09-20T15:44:12;102531.25;;;14.94;0.00
22657;BME280;11495;55.610;12.100;2022-09-20T15:46:40;102547.34;;;14.97;0.00
22657;BME280;11495;55.610;12.100;2022-09-20T15:49:06;102552.63;;;14.99;0.00
22657;BME280;11495;55.610;12.100;2022-09-20T15:51:33;102564.19;;;14.91;0.00
22657;BME280;11495;55.610;12.100;2022-09-20T15:54:00;102560.00;;;14.88;0.00
22657;BME280;11495;55.610;12.100;2022-09-20T15:56:27;102558.28;;;14.82;0.00
22657;BME280;11495;55.610;12.100;2022-09-20T15:58:53;102571.53;;;14.80;0.00
22657;BME280;11495;55.610;12.100;2022-09-20T16:01:23;102581.22;;;14.77;0.00
22657;BME280;11495;55.610;12.100;2022-09-20T16:03:49;102573.19;;;14.76;0.00
22657;BME280;11495;55.610;12.100;2022-09-20T16:06:15;102574.94;;;14.60;0.00
22657;BME280;11495;55.610;12.100;2022-09-20T16:08:41;102577.97;;;14.58;0.00
22657;BME280;11495;55.610;12.100;2022-09-20T16:11:07;102575.97;;;14.54;0.00
22657;BME280;11495;55.610;12.100;2022-09-20T16:13:33;102577.59;;;14.50;0.00
22657;BME280;11495;55.610;12.100;2022-09-20T16:16:01;102577.38;;;14.34;0.00
22657;BME280;11495;55.610;12.100;2022-09-20T16:18:27;102574.47;;;14.24;0.00
22657;BME280;11495;55.610;12.100;2022-09-20T16:21:11;102587.09;;;14.15;0.00
22657;BME280;11495;55.610;12.100;2022-09-20T16:23:37;102583.06;;;14.06;0.00
22657;BME280;11495;55.610;12.100;2022-09-20T16:26:03;102586.47;;;13.91;0.00
22657;BME280;11495;55.610;12.100;2022-09-20T16:28:30;102588.22;;;13.81;0.00
22657;BME280;11495;55.610;12.100;2022-09-20T16:30:55;102596.97;;;13.72;0.00
22657;BME280;11495;55.610;12.100;2022-09-20T16:33:21;102614.59;;;13.66;0.00
22657;BME280;11495;55.610;12.100;2022-09-20T16:35:46;102608.38;;;13.59;0.00
22657;BME280;11495;55.610;12.100;2022-09-20T16:38:12;102625.12;;;13.53;0.00
22657;BME280;11495;55.610;12.100;2022-09-20T16:40:38;102616.50;;;13.49;0.00
22657;BME280;11495;55.610;12.100;2022-09-20T16:43:03;102618.09;;;13.45;0.00
22657;BME280;11495;55.610;12.100;2022-09-20T16:45:30;102616.56;;;13.37;0.00
22657;BME280;11495;55.610;12.100;2022-09-20T16:47:55;102625.63;;;13.33;0.00
22657;BME280;11495;55.610;12.100;2022-09-20T16:50:22;102627.44;;;13.27;0.00
22657;BME280;11495;55.610;12.100;2022-09-20T16:52:47;102627.09;;;13.24;0.00
22657;BME280;11495;55.610;12.100;2022-09-20T16:55:13;102623.37;;;13.18;0.00
22657;BME280;11495;55.610;12.100;2022-09-20T16:57:38;102623.22;;;13.08;0.00
22657;BME280;11495;55.610;12.100;2022-09-20T17:00:04;102627.53;;;13.04;0.00
22657;BME280;11495;55.610;12.100;2022-09-20T17:02:29;102624.09;;;12.97;0.00
22657;BME280;11495;55.610;12.100;2022-09-20T17:04:54;102612.72;;;12.93;0.00
22657;BME280;11495;55.610;12.100;2022-09-20T17:07:20;102616.69;;;12.85;0.00
22657;BME280;11495;55.610;12.100;2022-09-20T17:09:48;102611.56;;;12.77;0.00
22657;BME280;11495;55.610;12.100;2022-09-20T17:12:13;102604.00;;;12.73;0.00
22657;BME280;11495;55.610;12.100;2022-09-20T17:14:39;102588.44;;;12.67;0.00
22657;BME280;11495;55.610;12.100;2022-09-20T17:17:04;102576.56;;;12.66;0.00
22657;BME280;11495;55.610;12.100;2022-09-20T17:19:29;102578.38;;;12.60;0.00
22657;BME280;11495;55.610;12.100;2022-09-20T17:21:54;102568.81;;;12.51;0.00
22657;BME280;11495;55.610;12.100;2022-09-20T17:24:20;102559.59;;;12.46;0.00
22657;BME280;11495;55.610;12.100;2022-09-20T17:26:48;102560.72;;;12.33;0.00
22657;BME280;11495;55.610;12.100;2022-09-20T17:29:14;102542.25;;;12.22;0.00
22657;BME280;11495;55.610;12.100;2022-09-20T17:31:42;102531.63;;;12.14;0.00
22657;BME280;11495;55.610;12.100;2022-09-20T17:34:09;102515.94;;;12.02;0.00
22657;BME280;11495;55.610;12.100;2022-09-20T17:36:37;102507.78;;;11.96;0.00
22657;BME280;11495;55.610;12.100;2022-09-20T17:39:06;102504.84;;;11.86;0.00
22657;BME280;11495;55.610;12.100;2022-09-20T17:41:35;102489.72;;;11.76;0.00
22657;BME280;11495;55.610;12.100;2022-09-20T17:44:03;102489.12;;;11.63;0.00
22657;BME280;11495;55.610;12.100;2022-09-20T17:46:32;102489.84;;;11.46;0.00
22657;BME280;11495;55.610;12.100;2022-09-20T17:49:02;102482.91;;;11.32;0.00
22657;BME280;11495;55.610;12.100;2022-09-20T17:51:29;102475.62;;;11.26;0.00
22657;BME280;11495;55.610;12.100;2022-09-20T17:53:55;102460.63;;;11.22;0.00
22657;BME280;11495;55.610;12.100;2022-09-20T17:56:22;102447.22;;;11.14;0.00
22657;BME280;11495;55.610;12.100;2022-09-20T17:58:48;102449.16;;;11.02;0.00
22657;BME280;11495;55.610;12.100;2022-09-20T18:01:15;102438.69;;;10.92;0.00
22657;BME280;11495;55.610;12.100;2022-09-20T18:03:42;102433.69;;;10.89;0.00